Hauptseite
METAR-TAF:

METAR-TAF

Flughäfen :

Flughafen Gran Canaria

Gran Canaria, Spanien

Breite: 27-56N, Länge: 015-23W, Höhe: 23 m

Beobachtung

Neuester Wetterbericht von vor 28 Minuten, um 06:30 UTC
Wind 13 kt aus Nord
Temperatur 17°C
Luftfeuchtigkeit 82%
Luftdruck 1021 hPa
Sichtweite 10 km oder mehr
Durchbrochene Bewölkung in der Höhe von 2000 ft

METAR: GCLP 270630Z 36013KT 9999 BKN020 17/14 Q1021 NOSIG

Zeit: 06:58 (06:58 UTC)

Prognose

Neuester Wetterbericht von vor 4 Stunden und 58 Minuten, um 02:00 UTC
Gültige Prognose vom 27 um 03 UTC bis 28 um 03 UTC
Wind 15 kt aus Nord
Sichtweite 10 km oder mehr
Aufgelockert bewölkt in der Höhe von 2000 ft
Übergehend zu
vom 27 um 09 UTC bis 27 um 11 UTC
Wind 5 kt aus Ost/Nordost

TAF: GCLP 270200Z 2703/2803 01015KT 9999 SCT020 TX25/2714Z TN17/2707Z BECMG 2709/2711 06005KT

Wetterbeobachtungen und Prognosen von mehr als 4000 Flughäfen (METAR und TAF Bericht).

Die verfügbaren Stationen werden durch gelbe und rote Markierungen auf der Karte dargestellt.

Führen Sie die Maus auf sie, um den Namen der Station zu sehen.

Darauf klicken, um die Beobachtung von Wetterbeobachtungen und Prognosen zu sehen.

Um die Karte zu ändern : klicken Sie auf den grünen Tasten mit einem schwarzen Kreuz Zum Vergrößern, auf den grünen Button mit einem Gedankenstrich zu verkleinern, oder auf die grünen Pfeile für benachbarte Karten.


METAR-TAF: